SVR901 LTAI-USSS
Flight info
| Callsign | SVR901 |
|---|---|
| Flight time | N/A |
| Altitude | 34000 |
| Route | TEWHE UR55 MUT UA285 SELVI/N0454F350 UA285 SIV UW706 TBN UN37 SARPI DCT FOQUS DCT LURIS/K0841F350 A955 PINMU DCT KUDAS DCT ITAKA N154 NOGBU N996 AGILA/K0839F370 N996 KODUM Z210 EKTOB L992 NEBIS NEBIS6R |
| Aircraft | A320/M-SDE3FGHIRWY/LB1 |
Departure
| Time | N/A |
|---|---|
| Airport | Antalya International Airport (LTAI) |
Arrival
| Time | 2026-05-01 12:53 |
|---|---|
| Airport | Koltsovo Airport (USSS) |
| Time | Latitude | Longitude | Altitude | Speed | Heading |
|---|---|---|---|---|---|
| 2026-05-01 10:36 | 43.07007 | 48.11861 | 35054 ft | 503 kts | 53° |
| 2026-05-01 10:37 | 43.11085 | 48.19708 | 35064 ft | 504 kts | 53° |
| 2026-05-01 10:37 | 43.17166 | 48.31429 | 35084 ft | 506 kts | 53° |
| 2026-05-01 10:38 | 43.21249 | 48.39320 | 35098 ft | 506 kts | 53° |
| 2026-05-01 10:38 | 43.25397 | 48.47066 | 35099 ft | 506 kts | 50° |
| 2026-05-01 10:39 | 43.29927 | 48.54470 | 35110 ft | 505 kts | 47° |
| 2026-05-01 10:39 | 43.34532 | 48.61702 | 35113 ft | 505 kts | 47° |
| 2026-05-01 10:40 | 43.39087 | 48.69074 | 35121 ft | 506 kts | 48° |
| 2026-05-01 10:40 | 43.43576 | 48.76554 | 35122 ft | 506 kts | 49° |
| 2026-05-01 10:41 | 43.48015 | 48.83991 | 35125 ft | 506 kts | 49° |
| 2026-05-01 10:42 | 43.54753 | 48.95197 | 35126 ft | 506 kts | 49° |
| 2026-05-01 10:42 | 43.59217 | 49.02636 | 35134 ft | 505 kts | 49° |
| 2026-05-01 10:43 | 43.63703 | 49.10136 | 35133 ft | 505 kts | 49° |
| 2026-05-01 10:43 | 43.68147 | 49.17582 | 35136 ft | 505 kts | 49° |
| 2026-05-01 10:44 | 43.72615 | 49.25091 | 35133 ft | 505 kts | 49° |
| 2026-05-01 10:44 | 43.77078 | 49.32615 | 35141 ft | 505 kts | 49° |
| 2026-05-01 10:45 | 43.81516 | 49.40114 | 35140 ft | 505 kts | 49° |
| 2026-05-01 10:45 | 43.85356 | 49.48268 | 35139 ft | 506 kts | 66° |
| 2026-05-01 10:46 | 43.87226 | 49.57571 | 35136 ft | 504 kts | 85° |
| 2026-05-01 10:46 | 43.87421 | 49.67253 | 35138 ft | 502 kts | 91° |
| 2026-05-01 10:47 | 43.87461 | 49.76900 | 35138 ft | 502 kts | 91° |
| 2026-05-01 10:47 | 43.87496 | 49.86601 | 35143 ft | 502 kts | 92° |
| 2026-05-01 10:48 | 43.87521 | 49.96243 | 35147 ft | 502 kts | 92° |
| 2026-05-01 10:48 | 43.87538 | 50.05936 | 35150 ft | 502 kts | 92° |
| 2026-05-01 10:49 | 43.87549 | 50.15567 | 35150 ft | 502 kts | 92° |
| 2026-05-01 10:49 | 43.87544 | 50.25198 | 35152 ft | 502 kts | 92° |
| 2026-05-01 10:50 | 43.87537 | 50.34893 | 35159 ft | 502 kts | 92° |
| 2026-05-01 10:50 | 43.87528 | 50.44581 | 35164 ft | 502 kts | 92° |
| 2026-05-01 10:51 | 43.87503 | 50.54200 | 35163 ft | 502 kts | 93° |
| 2026-05-01 10:51 | 43.87468 | 50.63892 | 35163 ft | 501 kts | 93° |
| 2026-05-01 10:52 | 43.87431 | 50.73517 | 35161 ft | 501 kts | 93° |
| 2026-05-01 10:52 | 43.87377 | 50.83187 | 35158 ft | 501 kts | 93° |
| 2026-05-01 10:53 | 43.87323 | 50.92832 | 35152 ft | 501 kts | 91° |
| 2026-05-01 10:53 | 43.87700 | 50.97585 | 35150 ft | 504 kts | 79° |
| 2026-05-01 10:53 | 43.88730 | 51.02236 | 35147 ft | 506 kts | 68° |
| 2026-05-01 10:53 | 43.90382 | 51.06546 | 35143 ft | 507 kts | 56° |
| 2026-05-01 10:54 | 43.92608 | 51.10360 | 35141 ft | 507 kts | 44° |
| 2026-05-01 10:54 | 43.95272 | 51.13471 | 35141 ft | 505 kts | 32° |
| 2026-05-01 10:54 | 43.98235 | 51.16097 | 35139 ft | 505 kts | 31° |
| 2026-05-01 10:55 | 44.04196 | 51.21310 | 35134 ft | 506 kts | 31° |
| 2026-05-01 10:55 | 44.10119 | 51.26529 | 35139 ft | 506 kts | 31° |
| 2026-05-01 10:56 | 44.12142 | 51.28318 | 35141 ft | 506 kts | 31° |
| 2026-05-01 10:57 | 44.33979 | 51.47670 | 35137 ft | 508 kts | 31° |
| 2026-05-01 10:58 | 44.39942 | 51.52995 | 35137 ft | 509 kts | 31° |
| 2026-05-01 10:58 | 44.45880 | 51.58308 | 35144 ft | 509 kts | 31° |
| 2026-05-01 10:59 | 44.51876 | 51.63682 | 35151 ft | 510 kts | 31° |
| 2026-05-01 10:59 | 44.57826 | 51.69020 | 35152 ft | 510 kts | 32° |
| 2026-05-01 11:00 | 44.63811 | 51.74408 | 35154 ft | 510 kts | 32° |
| 2026-05-01 11:00 | 44.69758 | 51.79788 | 35157 ft | 511 kts | 32° |
| 2026-05-01 11:01 | 44.75749 | 51.85216 | 35250 ft | 510 kts | 32° |
| 2026-05-01 11:01 | 44.78715 | 51.87907 | 35667 ft | 503 kts | 32° |
| 2026-05-01 11:01 | 44.81611 | 51.90534 | 35939 ft | 500 kts | 32° |
| 2026-05-01 11:01 | 44.84550 | 51.93159 | 36152 ft | 499 kts | 31° |
| 2026-05-01 11:02 | 44.87509 | 51.95719 | 36343 ft | 498 kts | 30° |
| 2026-05-01 11:02 | 44.90479 | 51.98238 | 36517 ft | 497 kts | 30° |
| 2026-05-01 11:02 | 44.93447 | 52.00740 | 36675 ft | 497 kts | 30° |
| 2026-05-01 11:02 | 44.96415 | 52.03249 | 36832 ft | 497 kts | 30° |
| 2026-05-01 11:03 | 44.99338 | 52.05742 | 36989 ft | 496 kts | 30° |
| 2026-05-01 11:03 | 45.02293 | 52.08286 | 37131 ft | 496 kts | 30° |
| 2026-05-01 11:03 | 45.05245 | 52.10842 | 37156 ft | 498 kts | 30° |
| 2026-05-01 11:04 | 45.11147 | 52.15957 | 37154 ft | 503 kts | 30° |
| 2026-05-01 11:04 | 45.17154 | 52.21179 | 37155 ft | 507 kts | 31° |
| 2026-05-01 11:05 | 45.23156 | 52.26405 | 37158 ft | 509 kts | 31° |
| 2026-05-01 11:05 | 45.29210 | 52.31676 | 37158 ft | 509 kts | 31° |
| 2026-05-01 11:06 | 45.35208 | 52.36928 | 37164 ft | 509 kts | 31° |
| 2026-05-01 11:06 | 45.41241 | 52.42240 | 37174 ft | 509 kts | 31° |
| 2026-05-01 11:07 | 45.50290 | 52.50184 | 37176 ft | 510 kts | 31° |
| 2026-05-01 11:07 | 45.56328 | 52.55511 | 37182 ft | 510 kts | 31° |
| 2026-05-01 11:08 | 45.62339 | 52.60832 | 37185 ft | 510 kts | 31° |
| 2026-05-01 11:09 | 45.71411 | 52.68862 | 37187 ft | 510 kts | 31° |
| 2026-05-01 11:09 | 45.77409 | 52.74191 | 37187 ft | 510 kts | 31° |
| 2026-05-01 11:10 | 45.86448 | 52.82269 | 37182 ft | 510 kts | 31° |
| 2026-05-01 11:10 | 45.92470 | 52.87662 | 37190 ft | 510 kts | 31° |
| 2026-05-01 11:11 | 45.98464 | 52.93057 | 37184 ft | 510 kts | 31° |
| 2026-05-01 11:11 | 46.04484 | 52.98479 | 37179 ft | 510 kts | 31° |
| 2026-05-01 11:12 | 46.10478 | 53.03878 | 37178 ft | 510 kts | 31° |
| 2026-05-01 11:12 | 46.16492 | 53.09323 | 37180 ft | 510 kts | 31° |
| 2026-05-01 11:13 | 46.22496 | 53.14774 | 37183 ft | 510 kts | 31° |
| 2026-05-01 11:13 | 46.28469 | 53.20206 | 37180 ft | 510 kts | 31° |
| 2026-05-01 11:14 | 46.34477 | 53.25688 | 37180 ft | 510 kts | 31° |
| 2026-05-01 11:14 | 46.40488 | 53.31196 | 37176 ft | 510 kts | 31° |
| 2026-05-01 11:15 | 46.46467 | 53.36678 | 37176 ft | 510 kts | 31° |
| 2026-05-01 11:15 | 46.52450 | 53.42175 | 37172 ft | 510 kts | 31° |
| 2026-05-01 11:16 | 46.58421 | 53.47681 | 37169 ft | 510 kts | 31° |
| 2026-05-01 11:16 | 46.64423 | 53.53230 | 37169 ft | 511 kts | 31° |
| 2026-05-01 11:17 | 46.70424 | 53.58791 | 37166 ft | 511 kts | 31° |
| 2026-05-01 11:17 | 46.76383 | 53.64349 | 37159 ft | 511 kts | 31° |
| 2026-05-01 11:18 | 46.82373 | 53.69931 | 37162 ft | 511 kts | 31° |
| 2026-05-01 11:18 | 46.88391 | 53.75540 | 37164 ft | 512 kts | 31° |
| 2026-05-01 11:19 | 46.94358 | 53.81131 | 37160 ft | 512 kts | 31° |
| 2026-05-01 11:19 | 47.00355 | 53.86770 | 37159 ft | 512 kts | 31° |
| 2026-05-01 11:20 | 47.06339 | 53.92406 | 37153 ft | 512 kts | 31° |
| 2026-05-01 11:20 | 47.12342 | 53.98073 | 37151 ft | 512 kts | 32° |
| 2026-05-01 11:21 | 47.18293 | 54.03713 | 37149 ft | 512 kts | 31° |
| 2026-05-01 11:21 | 47.24300 | 54.09400 | 37150 ft | 512 kts | 31° |
| 2026-05-01 11:22 | 47.30263 | 54.15066 | 37148 ft | 513 kts | 31° |
| 2026-05-01 11:22 | 47.36256 | 54.20797 | 37145 ft | 513 kts | 32° |
| 2026-05-01 11:23 | 47.42240 | 54.26542 | 37151 ft | 513 kts | 32° |
| 2026-05-01 11:23 | 47.48196 | 54.32253 | 37144 ft | 513 kts | 32° |
| 2026-05-01 11:24 | 47.54190 | 54.38022 | 37163 ft | 512 kts | 28° |
| 2026-05-01 11:25 | 47.63094 | 54.46637 | 37139 ft | 510 kts | 28° |
| 2026-05-01 11:25 | 47.71986 | 54.55260 | 37141 ft | 510 kts | 28° |
| 2026-05-01 11:26 | 47.80892 | 54.63937 | 37142 ft | 511 kts | 28° |
| 2026-05-01 11:27 | 47.85841 | 54.68787 | 37142 ft | 511 kts | 28° |
| 2026-05-01 11:27 | 47.91763 | 54.74590 | 37142 ft | 511 kts | 28° |
| 2026-05-01 11:28 | 47.97732 | 54.80445 | 37137 ft | 512 kts | 28° |
| 2026-05-01 11:28 | 48.03649 | 54.86263 | 37140 ft | 512 kts | 28° |
| 2026-05-01 11:29 | 48.12553 | 54.95071 | 37137 ft | 513 kts | 29° |
| 2026-05-01 11:30 | 48.21457 | 55.03922 | 37137 ft | 513 kts | 29° |
| 2026-05-01 11:30 | 48.27424 | 55.09863 | 37133 ft | 513 kts | 29° |
| 2026-05-01 11:31 | 48.33335 | 55.15780 | 37133 ft | 514 kts | 29° |
| 2026-05-01 11:31 | 48.39302 | 55.21755 | 37135 ft | 514 kts | 29° |
| 2026-05-01 11:32 | 48.45213 | 55.27689 | 37128 ft | 514 kts | 29° |
| 2026-05-01 11:32 | 48.51180 | 55.33701 | 37133 ft | 514 kts | 29° |
| 2026-05-01 11:33 | 48.57092 | 55.39673 | 37123 ft | 514 kts | 30° |
| 2026-05-01 11:33 | 48.63055 | 55.45719 | 37119 ft | 515 kts | 30° |
| 2026-05-01 11:34 | 48.69002 | 55.51760 | 37122 ft | 515 kts | 30° |
| 2026-05-01 11:34 | 48.74912 | 55.57778 | 37118 ft | 515 kts | 30° |
| 2026-05-01 11:35 | 48.80863 | 55.63852 | 37123 ft | 515 kts | 30° |
| 2026-05-01 11:35 | 48.86803 | 55.69944 | 37122 ft | 515 kts | 30° |
| 2026-05-01 11:36 | 48.92738 | 55.76054 | 37120 ft | 516 kts | 30° |
| 2026-05-01 11:36 | 48.98652 | 55.82164 | 37117 ft | 516 kts | 30° |
| 2026-05-01 11:37 | 49.04603 | 55.88325 | 37112 ft | 516 kts | 30° |
| 2026-05-01 11:37 | 49.10513 | 55.94469 | 37111 ft | 516 kts | 30° |
| 2026-05-01 11:38 | 49.16459 | 56.00649 | 37110 ft | 516 kts | 30° |
| 2026-05-01 11:38 | 49.22359 | 56.06790 | 37104 ft | 516 kts | 30° |
| 2026-05-01 11:39 | 49.28302 | 56.13011 | 37107 ft | 516 kts | 30° |
| 2026-05-01 11:39 | 49.34203 | 56.19218 | 37102 ft | 516 kts | 30° |
| 2026-05-01 11:40 | 49.40144 | 56.25479 | 37099 ft | 516 kts | 30° |
| 2026-05-01 11:40 | 49.46050 | 56.31721 | 37098 ft | 517 kts | 31° |
| 2026-05-01 11:41 | 49.51948 | 56.37980 | 37092 ft | 517 kts | 31° |
| 2026-05-01 11:41 | 49.57865 | 56.44278 | 37091 ft | 517 kts | 31° |
| 2026-05-01 11:42 | 49.63798 | 56.50599 | 37084 ft | 517 kts | 31° |
| 2026-05-01 11:42 | 49.69684 | 56.56877 | 37081 ft | 517 kts | 31° |
| 2026-05-01 11:43 | 49.75597 | 56.63215 | 37083 ft | 517 kts | 31° |
| 2026-05-01 11:43 | 49.81518 | 56.69568 | 37077 ft | 517 kts | 31° |
| 2026-05-01 11:44 | 49.90358 | 56.79054 | 37073 ft | 517 kts | 31° |
| 2026-05-01 11:44 | 49.96280 | 56.85428 | 37067 ft | 517 kts | 31° |
| 2026-05-01 11:45 | 50.02149 | 56.91780 | 37063 ft | 517 kts | 31° |
| 2026-05-01 11:45 | 50.08058 | 56.98214 | 37061 ft | 518 kts | 31° |
| 2026-05-01 11:46 | 50.13966 | 57.04651 | 37063 ft | 518 kts | 31° |
| 2026-05-01 11:46 | 50.19837 | 57.11063 | 37060 ft | 518 kts | 32° |
| 2026-05-01 11:47 | 50.25831 | 57.17280 | 37055 ft | 514 kts | 23° |
| 2026-05-01 11:47 | 50.32464 | 57.21279 | 37057 ft | 507 kts | 13° |
| 2026-05-01 11:48 | 50.39153 | 57.24650 | 37054 ft | 508 kts | 13° |
| 2026-05-01 11:48 | 50.45888 | 57.28094 | 37051 ft | 508 kts | 13° |
| 2026-05-01 11:49 | 50.52590 | 57.31517 | 37037 ft | 509 kts | 13° |
| 2026-05-01 11:49 | 50.59339 | 57.34967 | 37039 ft | 509 kts | 13° |
| 2026-05-01 11:50 | 50.66044 | 57.38396 | 37033 ft | 509 kts | 13° |
| 2026-05-01 11:50 | 50.72814 | 57.41877 | 37032 ft | 510 kts | 13° |
| 2026-05-01 11:51 | 50.79529 | 57.45352 | 37029 ft | 510 kts | 14° |
| 2026-05-01 11:51 | 50.86304 | 57.48868 | 37028 ft | 511 kts | 14° |
| 2026-05-01 11:52 | 50.93053 | 57.52241 | 37023 ft | 510 kts | 12° |
| 2026-05-01 11:52 | 50.99880 | 57.55377 | 37017 ft | 510 kts | 11° |
| 2026-05-01 11:53 | 51.06668 | 57.58469 | 37016 ft | 511 kts | 12° |
| 2026-05-01 11:53 | 51.13497 | 57.61678 | 37016 ft | 511 kts | 12° |
| 2026-05-01 11:54 | 51.20317 | 57.64939 | 37010 ft | 511 kts | 12° |
| 2026-05-01 11:54 | 51.27102 | 57.68171 | 37013 ft | 512 kts | 12° |
| 2026-05-01 11:55 | 51.33945 | 57.71433 | 37006 ft | 512 kts | 12° |
| 2026-05-01 11:55 | 51.40741 | 57.74670 | 37004 ft | 512 kts | 12° |
| 2026-05-01 11:56 | 51.47593 | 57.77932 | 36997 ft | 513 kts | 12° |
| 2026-05-01 11:56 | 51.54390 | 57.81200 | 36994 ft | 513 kts | 12° |
| 2026-05-01 11:57 | 51.61233 | 57.84514 | 36987 ft | 514 kts | 12° |
| 2026-05-01 11:57 | 51.67984 | 57.87782 | 36988 ft | 514 kts | 12° |
| 2026-05-01 11:58 | 51.73725 | 57.90559 | 36987 ft | 515 kts | 12° |
| 2026-05-01 11:59 | 51.84037 | 57.95576 | 36983 ft | 515 kts | 12° |
| 2026-05-01 11:59 | 51.90864 | 57.98920 | 36982 ft | 515 kts | 13° |
| 2026-05-01 12:00 | 52.01182 | 58.04000 | 36975 ft | 516 kts | 13° |
| 2026-05-01 12:01 | 52.11460 | 58.09062 | 36973 ft | 516 kts | 13° |
| 2026-05-01 12:01 | 52.18309 | 58.12448 | 36972 ft | 516 kts | 13° |
| 2026-05-01 12:02 | 52.25186 | 58.15864 | 36965 ft | 516 kts | 13° |
| 2026-05-01 12:02 | 52.32016 | 58.19267 | 36968 ft | 516 kts | 13° |
| 2026-05-01 12:03 | 52.38897 | 58.22709 | 36960 ft | 516 kts | 13° |
| 2026-05-01 12:03 | 52.45734 | 58.26152 | 36960 ft | 516 kts | 13° |
| 2026-05-01 12:04 | 52.52571 | 58.29597 | 36956 ft | 516 kts | 13° |
| 2026-05-01 12:04 | 52.59450 | 58.33071 | 36954 ft | 516 kts | 14° |
| 2026-05-01 12:05 | 52.66270 | 58.36577 | 36955 ft | 516 kts | 14° |
| 2026-05-01 12:05 | 52.76541 | 58.41940 | 36959 ft | 516 kts | 14° |
| 2026-05-01 12:06 | 52.83403 | 58.45525 | 36958 ft | 516 kts | 14° |
| 2026-05-01 12:06 | 52.90259 | 58.49114 | 36953 ft | 516 kts | 14° |
| 2026-05-01 12:07 | 52.97055 | 58.52695 | 36951 ft | 516 kts | 15° |
| 2026-05-01 12:07 | 53.03902 | 58.56309 | 36952 ft | 515 kts | 15° |
| 2026-05-01 12:08 | 53.10745 | 58.59905 | 36952 ft | 514 kts | 15° |
| 2026-05-01 12:09 | 53.23791 | 58.66834 | 36948 ft | 514 kts | 15° |
| 2026-05-01 12:09 | 53.30603 | 58.70485 | 36945 ft | 513 kts | 15° |
| 2026-05-01 12:10 | 53.40775 | 58.75943 | 36944 ft | 513 kts | 15° |
| 2026-05-01 12:11 | 53.50990 | 58.81059 | 36945 ft | 511 kts | 13° |
| 2026-05-01 12:11 | 53.57851 | 58.84365 | 36944 ft | 511 kts | 14° |
| 2026-05-01 12:12 | 53.64651 | 58.87707 | 36943 ft | 511 kts | 14° |
| 2026-05-01 12:12 | 53.71480 | 58.91128 | 36939 ft | 511 kts | 14° |
| 2026-05-01 12:13 | 53.78257 | 58.94534 | 36939 ft | 511 kts | 14° |
| 2026-05-01 12:13 | 53.85079 | 58.97963 | 36936 ft | 511 kts | 14° |
| 2026-05-01 12:14 | 53.91911 | 59.01401 | 36934 ft | 511 kts | 14° |
| 2026-05-01 12:14 | 53.98694 | 59.04835 | 36933 ft | 511 kts | 14° |
| 2026-05-01 12:15 | 54.05503 | 59.08296 | 36932 ft | 511 kts | 15° |
| 2026-05-01 12:15 | 54.12315 | 59.11835 | 36934 ft | 511 kts | 15° |
| 2026-05-01 12:16 | 54.19135 | 59.15418 | 36933 ft | 512 kts | 15° |
| 2026-05-01 12:16 | 54.25917 | 59.18992 | 36931 ft | 512 kts | 15° |
| 2026-05-01 12:17 | 54.32704 | 59.22567 | 36931 ft | 512 kts | 15° |
| 2026-05-01 12:17 | 54.39530 | 59.26170 | 36935 ft | 512 kts | 15° |
| 2026-05-01 12:18 | 54.46302 | 59.29741 | 36961 ft | 510 kts | 15° |
| 2026-05-01 12:18 | 54.53068 | 59.33330 | 36964 ft | 508 kts | 15° |
| 2026-05-01 12:19 | 54.59823 | 59.36945 | 36964 ft | 506 kts | 16° |
| 2026-05-01 12:19 | 54.66501 | 59.40526 | 36961 ft | 505 kts | 16° |
| 2026-05-01 12:20 | 54.73215 | 59.44140 | 36965 ft | 504 kts | 16° |
| 2026-05-01 12:20 | 54.79931 | 59.47700 | 36962 ft | 503 kts | 15° |
| 2026-05-01 12:21 | 54.86616 | 59.51187 | 36959 ft | 503 kts | 15° |
| 2026-05-01 12:21 | 54.93274 | 59.54677 | 36958 ft | 502 kts | 15° |
| 2026-05-01 12:22 | 54.99989 | 59.58229 | 36950 ft | 502 kts | 16° |
| 2026-05-01 12:22 | 55.06679 | 59.61793 | 36956 ft | 503 kts | 16° |
| 2026-05-01 12:23 | 55.13329 | 59.65356 | 36957 ft | 503 kts | 16° |
| 2026-05-01 12:23 | 55.20027 | 59.68959 | 36961 ft | 502 kts | 16° |
| 2026-05-01 12:24 | 55.23337 | 59.70659 | 36810 ft | 502 kts | 14° |
| 2026-05-01 12:24 | 55.26723 | 59.72155 | 36188 ft | 502 kts | 12° |
| 2026-05-01 12:24 | 55.30158 | 59.73460 | 35253 ft | 505 kts | 10° |
| 2026-05-01 12:24 | 55.33622 | 59.74650 | 34249 ft | 509 kts | 10° |
| 2026-05-01 12:25 | 55.37070 | 59.75805 | 33281 ft | 509 kts | 11° |
| 2026-05-01 12:25 | 55.43997 | 59.78307 | 31269 ft | 506 kts | 13° |
| 2026-05-01 12:25 | 55.47433 | 59.79705 | 30307 ft | 504 kts | 14° |
| 2026-05-01 12:26 | 55.50849 | 59.81157 | 29082 ft | 504 kts | 15° |
| 2026-05-01 12:26 | 55.57576 | 59.84033 | 26767 ft | 497 kts | 14° |
| 2026-05-01 12:26 | 55.60944 | 59.85444 | 25461 ft | 496 kts | 14° |
| 2026-05-01 12:27 | 55.64316 | 59.86838 | 24166 ft | 495 kts | 14° |
| 2026-05-01 12:27 | 55.70913 | 59.89546 | 22038 ft | 481 kts | 13° |
| 2026-05-01 12:28 | 55.77295 | 59.92166 | 20294 ft | 466 kts | 13° |
| 2026-05-01 12:28 | 55.80433 | 59.93465 | 19446 ft | 460 kts | 12° |
| 2026-05-01 12:28 | 55.86601 | 59.96043 | 17761 ft | 448 kts | 12° |
| 2026-05-01 12:29 | 55.89571 | 59.97288 | 16973 ft | 441 kts | 12° |
| 2026-05-01 12:29 | 55.92545 | 59.98561 | 16197 ft | 435 kts | 13° |
| 2026-05-01 12:29 | 55.98269 | 60.01474 | 14702 ft | 424 kts | 17° |
| 2026-05-01 12:30 | 56.03838 | 60.04623 | 13251 ft | 413 kts | 17° |
| 2026-05-01 12:30 | 56.06544 | 60.06146 | 12612 ft | 404 kts | 17° |
| 2026-05-01 12:30 | 56.09219 | 60.07628 | 11936 ft | 397 kts | 17° |
| 2026-05-01 12:31 | 56.11815 | 60.09044 | 11299 ft | 390 kts | 16° |
| 2026-05-01 12:31 | 56.14343 | 60.10411 | 11108 ft | 363 kts | 16° |
| 2026-05-01 12:31 | 56.16664 | 60.11662 | 10851 ft | 332 kts | 16° |
| 2026-05-01 12:31 | 56.18777 | 60.12805 | 10699 ft | 303 kts | 16° |
| 2026-05-01 12:32 | 56.20728 | 60.13861 | 10402 ft | 286 kts | 16° |
| 2026-05-01 12:32 | 56.24437 | 60.15876 | 9907 ft | 275 kts | 16° |
| 2026-05-01 12:32 | 56.26263 | 60.16874 | 9758 ft | 273 kts | 16° |
| 2026-05-01 12:33 | 56.28085 | 60.17872 | 9619 ft | 273 kts | 16° |
| 2026-05-01 12:33 | 56.29874 | 60.18850 | 9473 ft | 271 kts | 17° |
| 2026-05-01 12:33 | 56.31676 | 60.19833 | 9350 ft | 270 kts | 16° |
| 2026-05-01 12:33 | 56.33480 | 60.20820 | 9209 ft | 269 kts | 17° |
| 2026-05-01 12:34 | 56.35268 | 60.21800 | 9074 ft | 268 kts | 16° |
| 2026-05-01 12:34 | 56.37048 | 60.22776 | 8941 ft | 267 kts | 16° |
| 2026-05-01 12:34 | 56.38802 | 60.23736 | 8679 ft | 268 kts | 16° |
| 2026-05-01 12:34 | 56.40607 | 60.24729 | 8277 ft | 265 kts | 16° |
| 2026-05-01 12:35 | 56.42352 | 60.25691 | 7830 ft | 265 kts | 16° |
| 2026-05-01 12:35 | 56.44096 | 60.26652 | 7501 ft | 260 kts | 16° |
| 2026-05-01 12:35 | 56.45653 | 60.27508 | 7322 ft | 251 kts | 16° |
| 2026-05-01 12:35 | 56.47287 | 60.28406 | 7198 ft | 239 kts | 15° |
| 2026-05-01 12:36 | 56.48872 | 60.28670 | 7065 ft | 228 kts | 353° |
| 2026-05-01 12:36 | 56.50343 | 60.27740 | 6878 ft | 222 kts | 330° |
| 2026-05-01 12:36 | 56.51458 | 60.25803 | 6833 ft | 228 kts | 308° |
| 2026-05-01 12:36 | 56.52293 | 60.23337 | 6782 ft | 230 kts | 306° |
| 2026-05-01 12:37 | 56.53116 | 60.20861 | 6690 ft | 230 kts | 306° |
| 2026-05-01 12:37 | 56.53940 | 60.18380 | 6572 ft | 229 kts | 306° |
| 2026-05-01 12:37 | 56.54784 | 60.15935 | 6441 ft | 226 kts | 312° |
| 2026-05-01 12:37 | 56.55860 | 60.13977 | 6319 ft | 221 kts | 325° |
| 2026-05-01 12:38 | 56.57059 | 60.12232 | 6185 ft | 221 kts | 324° |
| 2026-05-01 12:38 | 56.58251 | 60.10482 | 6053 ft | 220 kts | 324° |
| 2026-05-01 12:38 | 56.59431 | 60.08747 | 5934 ft | 220 kts | 324° |
| 2026-05-01 12:38 | 56.60623 | 60.06997 | 5904 ft | 220 kts | 324° |
| 2026-05-01 12:39 | 56.61827 | 60.05248 | 5910 ft | 220 kts | 327° |
| 2026-05-01 12:39 | 56.63173 | 60.03976 | 5922 ft | 218 kts | 343° |
| 2026-05-01 12:39 | 56.64607 | 60.03095 | 5917 ft | 218 kts | 343° |
| 2026-05-01 12:39 | 56.66042 | 60.02201 | 5911 ft | 218 kts | 343° |
| 2026-05-01 12:40 | 56.67459 | 60.01315 | 5920 ft | 218 kts | 342° |
| 2026-05-01 12:40 | 56.68904 | 60.00407 | 5902 ft | 218 kts | 342° |
| 2026-05-01 12:40 | 56.70343 | 59.99503 | 5917 ft | 219 kts | 343° |
| 2026-05-01 12:40 | 56.71831 | 59.98967 | 5902 ft | 218 kts | 358° |
| 2026-05-01 12:41 | 56.73325 | 59.99006 | 5911 ft | 218 kts | 1° |
| 2026-05-01 12:41 | 56.74845 | 59.99056 | 5902 ft | 218 kts | 1° |
| 2026-05-01 12:41 | 56.76373 | 59.99101 | 5912 ft | 218 kts | 1° |
| 2026-05-01 12:41 | 56.77889 | 59.99144 | 5911 ft | 218 kts | 1° |
| 2026-05-01 12:42 | 56.79405 | 59.99187 | 5909 ft | 218 kts | 1° |
| 2026-05-01 12:42 | 56.80917 | 59.99466 | 5910 ft | 218 kts | 13° |
| 2026-05-01 12:42 | 56.82348 | 60.00401 | 5912 ft | 220 kts | 20° |
| 2026-05-01 12:42 | 56.83763 | 60.01401 | 5906 ft | 220 kts | 19° |
| 2026-05-01 12:43 | 56.85130 | 60.02626 | 5900 ft | 221 kts | 36° |
| 2026-05-01 12:43 | 56.86079 | 60.04834 | 5898 ft | 226 kts | 63° |
| 2026-05-01 12:43 | 56.86354 | 60.07704 | 5865 ft | 236 kts | 91° |
| 2026-05-01 12:43 | 56.85805 | 60.10568 | 5728 ft | 244 kts | 122° |
| 2026-05-01 12:44 | 56.84575 | 60.12742 | 5602 ft | 249 kts | 138° |
| 2026-05-01 12:44 | 56.83223 | 60.14724 | 5470 ft | 249 kts | 139° |
| 2026-05-01 12:44 | 56.80533 | 60.18630 | 5213 ft | 248 kts | 139° |
| 2026-05-01 12:45 | 56.77846 | 60.22559 | 4956 ft | 246 kts | 138° |
| 2026-05-01 12:45 | 56.76508 | 60.24515 | 4824 ft | 246 kts | 139° |
| 2026-05-01 12:45 | 56.75192 | 60.26436 | 4696 ft | 245 kts | 139° |
| 2026-05-01 12:46 | 56.73863 | 60.28376 | 4563 ft | 244 kts | 139° |
| 2026-05-01 12:46 | 56.72534 | 60.30315 | 4422 ft | 244 kts | 139° |
| 2026-05-01 12:46 | 56.71346 | 60.32469 | 4299 ft | 239 kts | 118° |
| 2026-05-01 12:46 | 56.70814 | 60.35221 | 4163 ft | 231 kts | 91° |
| 2026-05-01 12:47 | 56.71015 | 60.38045 | 4027 ft | 223 kts | 64° |
| 2026-05-01 12:47 | 56.71830 | 60.40339 | 3897 ft | 210 kts | 45° |
| 2026-05-01 12:47 | 56.72779 | 60.42300 | 3768 ft | 204 kts | 46° |
| 2026-05-01 12:47 | 56.73687 | 60.44197 | 3635 ft | 198 kts | 46° |
| 2026-05-01 12:48 | 56.74584 | 60.46085 | 3504 ft | 193 kts | 48° |
| 2026-05-01 12:48 | 56.75203 | 60.48242 | 3368 ft | 192 kts | 72° |
| 2026-05-01 12:48 | 56.75272 | 60.50614 | 3286 ft | 187 kts | 90° |
| 2026-05-01 12:48 | 56.75184 | 60.52916 | 3157 ft | 177 kts | 89° |
| 2026-05-01 12:49 | 56.75101 | 60.55102 | 3004 ft | 165 kts | 90° |
| 2026-05-01 12:49 | 56.75025 | 60.57106 | 2849 ft | 151 kts | 89° |
| 2026-05-01 12:49 | 56.74957 | 60.58923 | 2787 ft | 142 kts | 88° |
| 2026-05-01 12:49 | 56.74890 | 60.60704 | 2644 ft | 140 kts | 89° |
| 2026-05-01 12:50 | 56.74824 | 60.62460 | 2481 ft | 138 kts | 88° |
| 2026-05-01 12:50 | 56.74759 | 60.64189 | 2303 ft | 137 kts | 89° |
| 2026-05-01 12:50 | 56.74693 | 60.65926 | 2118 ft | 137 kts | 88° |
| 2026-05-01 12:50 | 56.74627 | 60.67664 | 1930 ft | 137 kts | 88° |
| 2026-05-01 12:51 | 56.74559 | 60.69377 | 1737 ft | 137 kts | 89° |
| 2026-05-01 12:51 | 56.74492 | 60.71106 | 1543 ft | 136 kts | 89° |
| 2026-05-01 12:51 | 56.74353 | 60.74575 | 1154 ft | 137 kts | 90° |
| 2026-05-01 12:52 | 56.74287 | 60.76278 | 964 ft | 136 kts | 90° |
| 2026-05-01 12:52 | 56.74172 | 60.79504 | 775 ft | 95 kts | 94° |
| 2026-05-01 12:52 | 56.74133 | 60.80438 | 775 ft | 58 kts | 94° |
| 2026-05-01 12:53 | 56.74090 | 60.81476 | 775 ft | 32 kts | 93° |
| 2026-05-01 12:53 | 56.74074 | 60.81877 | 775 ft | 31 kts | 94° |
| 2026-05-01 12:53 | 56.74075 | 60.82119 | 775 ft | 11 kts | 60° |
| 2026-05-01 12:54 | 56.74146 | 60.82159 | 776 ft | 11 kts | 2° |
| 2026-05-01 12:54 | 56.74307 | 60.82180 | 776 ft | 12 kts | 4° |
| 2026-05-01 12:54 | 56.74396 | 60.82191 | 776 ft | 13 kts | 5° |
| 2026-05-01 12:55 | 56.74588 | 60.82201 | 776 ft | 14 kts | 0° |
| 2026-05-01 12:55 | 56.74689 | 60.82201 | 776 ft | 15 kts | 360° |
| 2026-05-01 12:55 | 56.74779 | 60.82131 | 776 ft | 15 kts | 304° |
| 2026-05-01 12:56 | 56.74829 | 60.81963 | 776 ft | 16 kts | 297° |
| 2026-05-01 12:56 | 56.74862 | 60.81773 | 776 ft | 16 kts | 271° |
| 2026-05-01 12:56 | 56.74863 | 60.81564 | 776 ft | 17 kts | 270° |
| 2026-05-01 12:56 | 56.74863 | 60.81349 | 776 ft | 17 kts | 270° |
| 2026-05-01 12:57 | 56.74863 | 60.81131 | 776 ft | 18 kts | 270° |
| 2026-05-01 12:57 | 56.74853 | 60.80759 | 775 ft | 10 kts | 270° |
| 2026-05-01 12:57 | 56.74853 | 60.80657 | 775 ft | 7 kts | 269° |
| 2026-05-01 12:58 | 56.74865 | 60.80599 | 775 ft | 3 kts | 314° |
| 2026-05-01 12:58 | 56.74878 | 60.80588 | 775 ft | 1 kts | 340° |
| 2026-05-01 12:58 | 56.74889 | 60.80586 | 775 ft | 5 kts | 355° |
| 2026-05-01 12:59 | 56.74922 | 60.80587 | 775 ft | 0 kts | 1° |
| 2026-05-01 12:59 | 56.74931 | 60.80587 | 776 ft | 0 kts | 360° |
| 2026-05-01 12:59 | 56.74934 | 60.80587 | 776 ft | 0 kts | 360° |
| 2026-05-01 13:01 | 56.74933 | 60.80587 | 776 ft | 0 kts | 360° |